Elizabethton, TN (37643)

10:12 AM EST on February 12, 2016 (GMT -0500)
Coal Chute | | Change Station
CLOSE
Current Station
Personal Weather Station
Location: Elizabethton, TN
Elevation: 1792 ft
Nearby Weather Stations
Active Advisory: Winter Weather Advisory

Elev 1792 ft 36.31 °N, 82.22 °W | Updated 0 second ago

Snow
Snow
30.2 °F
Feels Like 30 °F
N
0.0
Wind Variable Wind from NW
Gusts 0.0 mph

Today
High -- | Low -- °F
--% Chance of Precip.
Yesterday
High -- | Low -- °F
Precip. -- in
Pressure 30.14 in
Visibility 0.5 miles
Clouds Mostly Cloudy 1500 ft
Overcast 2000 ft
Windchill 30 °F
Dew Point 15 °F
Humidity 52%
Rainfall 0.00 in
Snow Depth Not available.
7:20 AM 6:06 PM
Waxing Crescent, 21% visible
METAR KTRI 121453Z 00000KT 1/2SM SN FZFG BKN015 OVC020 M03/M04 A3012 RMK AO2 SLP204 P0002 60002 T10281044 50002
Pressure 30.14 in
Visibility 0.5 miles
Clouds Mostly Cloudy 1500 ft
Overcast 2000 ft
Windchill 30 °F
Dew Point 15 °F
Humidity 52%
Rainfall 0.00 in
Snow Depth Not available.
7:20 AM 6:06 PM
Waxing Crescent, 21% visible
METAR KTRI 121453Z 00000KT 1/2SM SN FZFG BKN015 OVC020 M03/M04 A3012 RMK AO2 SLP204 P0002 60002 T10281044 50002

10-Day Weather Forecast

Almanac

Astronomy

Feb. 12, 2016 Rise Set
Actual Time
Civil Twilight
Nautical Twilight
Astronomical Twilight
Moon
Length of Visible Light
Length of Day
Tomorrow will be .
, % of the Moon is Illuminated

Today's Extremes

State Highs State Lows

Community

WunderPhotos

Upload Photos

1,892,325 photos uploaded!

WunderBlog® & News

Nearby

Air Quality

  Air Quality AQ Index Pollutant
Not available.

Snow Depth

Station Depth Elevation

Earthquake Activity

City Distance Mag. Time & Date
Minimum magnitude displayed is 2.5.

Coastal Water Temperatures

Place Temperature

Stations

Nearby Weather Stations

Station Location Temp. Windchill Dew Point Humidity Wind Precip. Elev Updated Type
                   

Watches & Warnings

Winter Weather Advisory
Issued: 8:10 AM EST Feb. 12, 2016 – National Weather Service

... Winter Weather Advisory remains in effect until 4 PM EST this
afternoon...

* event... snow accumulations of up to 2 inches are expected.

* Timing... snow will continue through this morning then will taper
off this afternoon.

* Impacts... the snow may lead to hazardous Road conditions
especially on untreated roadways.

Precautionary/preparedness actions...

Travel will likely become hazardous once the wintry precipitation
begins. Motorists need to be especially careful on bridges and
overpasses where slippery spots often develop first.